sensor_id;sensor_type;location;lat;lon;timestamp;P1;durP1;ratioP1;P2;durP2;ratioP2
5871;SDS011;2962;51.312;7.378;2022-09-20T00:00:36;10.43;;;3.07;;
5871;SDS011;2962;51.312;7.378;2022-09-20T00:03:02;6.77;;;3.50;;
5871;SDS011;2962;51.312;7.378;2022-09-20T00:05:28;15.40;;;3.93;;
5871;SDS011;2962;51.312;7.378;2022-09-20T00:07:53;17.03;;;3.80;;
5871;SDS011;2962;51.312;7.378;2022-09-20T00:10:18;11.03;;;3.83;;
5871;SDS011;2962;51.312;7.378;2022-09-20T00:12:46;12.87;;;4.13;;
5871;SDS011;2962;51.312;7.378;2022-09-20T00:15:11;15.40;;;3.40;;
5871;SDS011;2962;51.312;7.378;2022-09-20T00:17:37;8.20;;;3.70;;
5871;SDS011;2962;51.312;7.378;2022-09-20T00:20:02;15.47;;;3.90;;
5871;SDS011;2962;51.312;7.378;2022-09-20T00:22:28;15.40;;;4.40;;
5871;SDS011;2962;51.312;7.378;2022-09-20T00:24:53;13.93;;;4.60;;
5871;SDS011;2962;51.312;7.378;2022-09-20T00:27:18;15.73;;;4.37;;
5871;SDS011;2962;51.312;7.378;2022-09-20T00:29:43;11.93;;;4.30;;
5871;SDS011;2962;51.312;7.378;2022-09-20T00:32:09;14.13;;;4.20;;
5871;SDS011;2962;51.312;7.378;2022-09-20T00:34:34;15.40;;;3.97;;
5871;SDS011;2962;51.312;7.378;2022-09-20T00:37:18;13.80;;;3.90;;
5871;SDS011;2962;51.312;7.378;2022-09-20T00:39:43;11.30;;;4.10;;
5871;SDS011;2962;51.312;7.378;2022-09-20T00:42:15;7.20;;;4.00;;
5871;SDS011;2962;51.312;7.378;2022-09-20T00:49:56;13.03;;;4.03;;
5871;SDS011;2962;51.312;7.378;2022-09-20T00:52:27;7.80;;;3.43;;
5871;SDS011;2962;51.312;7.378;2022-09-20T00:54:54;27.10;;;5.40;;
5871;SDS011;2962;51.312;7.378;2022-09-20T00:57:20;8.77;;;3.17;;
5871;SDS011;2962;51.312;7.378;2022-09-20T00:59:45;13.17;;;4.00;;
5871;SDS011;2962;51.312;7.378;2022-09-20T01:02:15;26.33;;;3.97;;
5871;SDS011;2962;51.312;7.378;2022-09-20T01:04:43;16.30;;;3.77;;
5871;SDS011;2962;51.312;7.378;2022-09-20T01:07:11;10.10;;;3.70;;
5871;SDS011;2962;51.312;7.378;2022-09-20T01:09:39;16.27;;;3.93;;
5871;SDS011;2962;51.312;7.378;2022-09-20T01:12:05;8.30;;;2.80;;
5871;SDS011;2962;51.312;7.378;2022-09-20T01:14:36;15.13;;;3.07;;
5871;SDS011;2962;51.312;7.378;2022-09-20T01:17:03;14.97;;;3.77;;
5871;SDS011;2962;51.312;7.378;2022-09-20T01:19:33;12.83;;;3.90;;
5871;SDS011;2962;51.312;7.378;2022-09-20T01:22:02;8.50;;;3.30;;
5871;SDS011;2962;51.312;7.378;2022-09-20T01:24:37;9.93;;;3.10;;
5871;SDS011;2962;51.312;7.378;2022-09-20T01:30:07;13.57;;;3.47;;
5871;SDS011;2962;51.312;7.378;2022-09-20T01:35:39;9.73;;;2.73;;
5871;SDS011;2962;51.312;7.378;2022-09-20T01:44:20;21.33;;;3.90;;
5871;SDS011;2962;51.312;7.378;2022-09-20T01:47:02;18.33;;;4.07;;
5871;SDS011;2962;51.312;7.378;2022-09-20T02:01:12;11.70;;;3.80;;
5871;SDS011;2962;51.312;7.378;2022-09-20T02:09:31;12.40;;;4.00;;
5871;SDS011;2962;51.312;7.378;2022-09-20T02:17:45;6.30;;;3.80;;
5871;SDS011;2962;51.312;7.378;2022-09-20T02:25:52;13.97;;;3.20;;
5871;SDS011;2962;51.312;7.378;2022-09-20T02:28:30;12.93;;;3.47;;
5871;SDS011;2962;51.312;7.378;2022-09-20T02:42:34;31.07;;;8.17;;
5871;SDS011;2962;51.312;7.378;2022-09-20T02:47:46;274.60;;;19.13;;
5871;SDS011;2962;51.312;7.378;2022-09-20T02:50:25;388.03;;;23.53;;
5871;SDS011;2962;51.312;7.378;2022-09-20T02:53:04;60.83;;;12.90;;
5871;SDS011;2962;51.312;7.378;2022-09-20T03:04:07;249.57;;;21.60;;
5871;SDS011;2962;51.312;7.378;2022-09-20T03:07:00;458.93;;;27.97;;
5871;SDS011;2962;51.312;7.378;2022-09-20T03:10:00;461.03;;;25.83;;
5871;SDS011;2962;51.312;7.378;2022-09-20T03:12:45;506.50;;;25.63;;
5871;SDS011;2962;51.312;7.378;2022-09-20T03:21:00;273.83;;;20.70;;
5871;SDS011;2962;51.312;7.378;2022-09-20T03:23:54;382.27;;;24.47;;
5871;SDS011;2962;51.312;7.378;2022-09-20T03:35:13;398.43;;;24.17;;
5871;SDS011;2962;51.312;7.378;2022-09-20T03:37:45;616.73;;;35.73;;
5871;SDS011;2962;51.312;7.378;2022-09-20T03:40:43;474.10;;;25.00;;
5871;SDS011;2962;51.312;7.378;2022-09-20T03:43:35;454.10;;;22.50;;
5871;SDS011;2962;51.312;7.378;2022-09-20T03:46:18;433.03;;;20.57;;
5871;SDS011;2962;51.312;7.378;2022-09-20T03:51:40;302.37;;;18.03;;
5871;SDS011;2962;51.312;7.378;2022-09-20T03:54:25;229.17;;;14.90;;
5871;SDS011;2962;51.312;7.378;2022-09-20T03:57:36;294.70;;;17.10;;
5871;SDS011;2962;51.312;7.378;2022-09-20T04:08:41;292.07;;;17.83;;
5871;SDS011;2962;51.312;7.378;2022-09-20T04:11:30;366.17;;;20.03;;
5871;SDS011;2962;51.312;7.378;2022-09-20T04:14:15;287.33;;;16.97;;
5871;SDS011;2962;51.312;7.378;2022-09-20T04:17:01;379.77;;;19.27;;
5871;SDS011;2962;51.312;7.378;2022-09-20T04:19:43;283.07;;;17.77;;
5871;SDS011;2962;51.312;7.378;2022-09-20T04:22:15;390.73;;;21.30;;
5871;SDS011;2962;51.312;7.378;2022-09-20T04:27:17;416.53;;;20.37;;
5871;SDS011;2962;51.312;7.378;2022-09-20T04:29:58;450.97;;;21.97;;
5871;SDS011;2962;51.312;7.378;2022-09-20T04:32:35;426.50;;;21.00;;
5871;SDS011;2962;51.312;7.378;2022-09-20T04:38:28;339.97;;;19.97;;
5871;SDS011;2962;51.312;7.378;2022-09-20T04:49:13;281.00;;;17.23;;
5871;SDS011;2962;51.312;7.378;2022-09-20T04:57:46;221.83;;;14.20;;
5871;SDS011;2962;51.312;7.378;2022-09-20T05:00:18;359.90;;;20.30;;
5871;SDS011;2962;51.312;7.378;2022-09-20T05:02:53;288.80;;;16.30;;
5871;SDS011;2962;51.312;7.378;2022-09-20T05:21:43;297.23;;;17.10;;
5871;SDS011;2962;51.312;7.378;2022-09-20T05:27:28;291.10;;;19.00;;
5871;SDS011;2962;51.312;7.378;2022-09-20T05:36:10;475.93;;;25.40;;
5871;SDS011;2962;51.312;7.378;2022-09-20T05:38:58;484.20;;;26.93;;
5871;SDS011;2962;51.312;7.378;2022-09-20T05:41:45;429.57;;;23.87;;
5871;SDS011;2962;51.312;7.378;2022-09-20T05:47:16;239.13;;;18.83;;
5871;SDS011;2962;51.312;7.378;2022-09-20T05:55:26;189.80;;;16.73;;
5871;SDS011;2962;51.312;7.378;2022-09-20T05:57:57;169.03;;;17.10;;
5871;SDS011;2962;51.312;7.378;2022-09-20T06:00:34;89.23;;;16.07;;
5871;SDS011;2962;51.312;7.378;2022-09-20T06:03:20;185.70;;;17.20;;
5871;SDS011;2962;51.312;7.378;2022-09-20T06:09:40;307.83;;;21.83;;
5871;SDS011;2962;51.312;7.378;2022-09-20T06:12:13;121.43;;;16.87;;
5871;SDS011;2962;51.312;7.378;2022-09-20T06:14:45;179.73;;;18.30;;
5871;SDS011;2962;51.312;7.378;2022-09-20T06:17:26;134.70;;;17.50;;
5871;SDS011;2962;51.312;7.378;2022-09-20T06:20:12;698.33;;;34.37;;
5871;SDS011;2962;51.312;7.378;2022-09-20T06:22:54;582.27;;;35.20;;
5871;SDS011;2962;51.312;7.378;2022-09-20T06:28:17;38.10;;;13.30;;
5871;SDS011;2962;51.312;7.378;2022-09-20T06:30:47;38.17;;;13.90;;
5871;SDS011;2962;51.312;7.378;2022-09-20T06:33:15;20.60;;;10.57;;
5871;SDS011;2962;51.312;7.378;2022-09-20T06:35:50;24.80;;;11.60;;
5871;SDS011;2962;51.312;7.378;2022-09-20T06:38:41;19.93;;;11.70;;
5871;SDS011;2962;51.312;7.378;2022-09-20T06:41:31;23.00;;;8.90;;
5871;SDS011;2962;51.312;7.378;2022-09-20T06:43:59;28.27;;;10.30;;
5871;SDS011;2962;51.312;7.378;2022-09-20T06:46:30;16.33;;;8.73;;
5871;SDS011;2962;51.312;7.378;2022-09-20T06:48:57;17.00;;;8.87;;
5871;SDS011;2962;51.312;7.378;2022-09-20T06:51:23;13.70;;;8.73;;
5871;SDS011;2962;51.312;7.378;2022-09-20T06:53:50;13.10;;;8.27;;
5871;SDS011;2962;51.312;7.378;2022-09-20T06:56:17;20.93;;;7.40;;
5871;SDS011;2962;51.312;7.378;2022-09-20T06:58:45;20.03;;;9.07;;
5871;SDS011;2962;51.312;7.378;2022-09-20T07:01:10;37.97;;;9.67;;
5871;SDS011;2962;51.312;7.378;2022-09-20T07:03:37;304.87;;;18.40;;
5871;SDS011;2962;51.312;7.378;2022-09-20T07:06:03;127.03;;;11.80;;
5871;SDS011;2962;51.312;7.378;2022-09-20T07:08:29;26.00;;;9.87;;
5871;SDS011;2962;51.312;7.378;2022-09-20T07:10:54;73.57;;;11.73;;
5871;SDS011;2962;51.312;7.378;2022-09-20T07:13:19;17.43;;;9.00;;
5871;SDS011;2962;51.312;7.378;2022-09-20T07:15:45;12.43;;;7.10;;
5871;SDS011;2962;51.312;7.378;2022-09-20T07:18:11;73.57;;;11.40;;
5871;SDS011;2962;51.312;7.378;2022-09-20T07:20:36;13.33;;;6.23;;
5871;SDS011;2962;51.312;7.378;2022-09-20T07:23:02;15.20;;;6.30;;
5871;SDS011;2962;51.312;7.378;2022-09-20T07:25:27;15.57;;;6.47;;
5871;SDS011;2962;51.312;7.378;2022-09-20T07:27:55;21.37;;;6.00;;
5871;SDS011;2962;51.312;7.378;2022-09-20T07:30:21;11.77;;;6.13;;
5871;SDS011;2962;51.312;7.378;2022-09-20T07:32:47;13.63;;;5.87;;
5871;SDS011;2962;51.312;7.378;2022-09-20T07:35:12;14.50;;;5.50;;
5871;SDS011;2962;51.312;7.378;2022-09-20T07:37:38;12.17;;;5.60;;
5871;SDS011;2962;51.312;7.378;2022-09-20T07:40:07;8.10;;;5.00;;
5871;SDS011;2962;51.312;7.378;2022-09-20T07:42:34;9.07;;;5.50;;
5871;SDS011;2962;51.312;7.378;2022-09-20T07:44:59;9.67;;;5.20;;
5871;SDS011;2962;51.312;7.378;2022-09-20T07:47:27;9.93;;;5.60;;
5871;SDS011;2962;51.312;7.378;2022-09-20T07:49:55;14.03;;;5.03;;
5871;SDS011;2962;51.312;7.378;2022-09-20T07:52:20;9.57;;;4.10;;
5871;SDS011;2962;51.312;7.378;2022-09-20T07:54:46;15.73;;;5.17;;
5871;SDS011;2962;51.312;7.378;2022-09-20T07:57:11;14.57;;;5.50;;
5871;SDS011;2962;51.312;7.378;2022-09-20T07:59:37;13.20;;;5.10;;
5871;SDS011;2962;51.312;7.378;2022-09-20T08:02:02;6.43;;;4.90;;
5871;SDS011;2962;51.312;7.378;2022-09-20T08:04:27;9.83;;;6.40;;
5871;SDS011;2962;51.312;7.378;2022-09-20T08:06:53;13.60;;;7.60;;
5871;SDS011;2962;51.312;7.378;2022-09-20T08:09:18;15.83;;;6.97;;
5871;SDS011;2962;51.312;7.378;2022-09-20T08:11:44;11.90;;;5.70;;
5871;SDS011;2962;51.312;7.378;2022-09-20T08:14:13;11.70;;;5.73;;
5871;SDS011;2962;51.312;7.378;2022-09-20T08:16:41;9.50;;;5.20;;
5871;SDS011;2962;51.312;7.378;2022-09-20T08:19:12;9.40;;;5.97;;
5871;SDS011;2962;51.312;7.378;2022-09-20T08:21:39;11.40;;;6.10;;
5871;SDS011;2962;51.312;7.378;2022-09-20T08:24:05;15.33;;;5.70;;
5871;SDS011;2962;51.312;7.378;2022-09-20T08:26:30;8.20;;;5.70;;
5871;SDS011;2962;51.312;7.378;2022-09-20T08:28:56;19.23;;;6.50;;
5871;SDS011;2962;51.312;7.378;2022-09-20T08:31:24;12.63;;;8.20;;
5871;SDS011;2962;51.312;7.378;2022-09-20T08:33:51;11.63;;;7.50;;
5871;SDS011;2962;51.312;7.378;2022-09-20T08:36:18;14.97;;;7.77;;
5871;SDS011;2962;51.312;7.378;2022-09-20T08:38:48;11.53;;;6.20;;
5871;SDS011;2962;51.312;7.378;2022-09-20T08:41:16;8.13;;;5.30;;
5871;SDS011;2962;51.312;7.378;2022-09-20T08:43:45;8.13;;;3.77;;
5871;SDS011;2962;51.312;7.378;2022-09-20T08:46:20;9.37;;;4.40;;
5871;SDS011;2962;51.312;7.378;2022-09-20T08:48:49;10.47;;;6.17;;
5871;SDS011;2962;51.312;7.378;2022-09-20T08:51:16;14.30;;;5.20;;
5871;SDS011;2962;51.312;7.378;2022-09-20T08:53:47;13.03;;;5.37;;
5871;SDS011;2962;51.312;7.378;2022-09-20T08:56:15;11.73;;;5.33;;
5871;SDS011;2962;51.312;7.378;2022-09-20T08:58:41;13.40;;;5.90;;
5871;SDS011;2962;51.312;7.378;2022-09-20T09:01:09;3.80;;;3.50;;
5871;SDS011;2962;51.312;7.378;2022-09-20T09:03:38;8.57;;;3.57;;
5871;SDS011;2962;51.312;7.378;2022-09-20T09:06:03;10.47;;;3.73;;
5871;SDS011;2962;51.312;7.378;2022-09-20T09:08:33;4.77;;;3.60;;
5871;SDS011;2962;51.312;7.378;2022-09-20T09:11:04;9.20;;;3.97;;
5871;SDS011;2962;51.312;7.378;2022-09-20T09:16:18;8.80;;;3.60;;
5871;SDS011;2962;51.312;7.378;2022-09-20T09:18:47;5.20;;;3.50;;
5871;SDS011;2962;51.312;7.378;2022-09-20T09:21:20;12.83;;;3.33;;
5871;SDS011;2962;51.312;7.378;2022-09-20T09:24:33;10.60;;;3.43;;
5871;SDS011;2962;51.312;7.378;2022-09-20T09:26:41;6.93;;;3.03;;
5871;SDS011;2962;51.312;7.378;2022-09-20T09:31:49;14.23;;;4.40;;
5871;SDS011;2962;51.312;7.378;2022-09-20T09:34:21;7.60;;;2.70;;
5871;SDS011;2962;51.312;7.378;2022-09-20T09:36:51;4.77;;;1.87;;
5871;SDS011;2962;51.312;7.378;2022-09-20T09:39:23;5.83;;;2.87;;
5871;SDS011;2962;51.312;7.378;2022-09-20T09:41:52;9.63;;;1.87;;
5871;SDS011;2962;51.312;7.378;2022-09-20T09:44:19;5.60;;;1.90;;
5871;SDS011;2962;51.312;7.378;2022-09-20T09:46:49;4.97;;;1.87;;
5871;SDS011;2962;51.312;7.378;2022-09-20T09:49:21;5.53;;;2.03;;
5871;SDS011;2962;51.312;7.378;2022-09-20T09:54:26;6.67;;;1.77;;
5871;SDS011;2962;51.312;7.378;2022-09-20T09:57:12;4.03;;;1.20;;
5871;SDS011;2962;51.312;7.378;2022-09-20T09:59:54;4.20;;;2.20;;
5871;SDS011;2962;51.312;7.378;2022-09-20T10:02:28;4.93;;;3.10;;
5871;SDS011;2962;51.312;7.378;2022-09-20T10:07:54;5.63;;;1.70;;
5871;SDS011;2962;51.312;7.378;2022-09-20T10:10:33;1.80;;;1.30;;
5871;SDS011;2962;51.312;7.378;2022-09-20T10:16:46;6.67;;;2.60;;
5871;SDS011;2962;51.312;7.378;2022-09-20T10:22:37;7.57;;;1.63;;
5871;SDS011;2962;51.312;7.378;2022-09-20T10:30:58;6.30;;;2.20;;
5871;SDS011;2962;51.312;7.378;2022-09-20T10:36:33;1.43;;;1.40;;
5871;SDS011;2962;51.312;7.378;2022-09-20T10:39:10;5.70;;;1.67;;
5871;SDS011;2962;51.312;7.378;2022-09-20T10:53:07;13.83;;;2.53;;
5871;SDS011;2962;51.312;7.378;2022-09-20T11:09:02;6.23;;;1.70;;
5871;SDS011;2962;51.312;7.378;2022-09-20T11:11:35;4.00;;;1.80;;
5871;SDS011;2962;51.312;7.378;2022-09-20T11:14:13;8.97;;;1.70;;
5871;SDS011;2962;51.312;7.378;2022-09-20T11:16:55;5.97;;;2.23;;
5871;SDS011;2962;51.312;7.378;2022-09-20T11:19:33;4.43;;;1.90;;
5871;SDS011;2962;51.312;7.378;2022-09-20T11:22:09;4.13;;;2.07;;
5871;SDS011;2962;51.312;7.378;2022-09-20T11:27:22;7.03;;;3.37;;
5871;SDS011;2962;51.312;7.378;2022-09-20T11:29:59;4.07;;;1.90;;
5871;SDS011;2962;51.312;7.378;2022-09-20T11:32:33;7.83;;;1.80;;
5871;SDS011;2962;51.312;7.378;2022-09-20T11:35:05;2.17;;;1.47;;
5871;SDS011;2962;51.312;7.378;2022-09-20T11:37:52;7.93;;;1.90;;
5871;SDS011;2962;51.312;7.378;2022-09-20T11:40:30;5.57;;;1.83;;
5871;SDS011;2962;51.312;7.378;2022-09-20T11:42:59;2.50;;;1.20;;
5871;SDS011;2962;51.312;7.378;2022-09-20T11:45:29;4.27;;;1.50;;
5871;SDS011;2962;51.312;7.378;2022-09-20T11:47:57;3.23;;;1.47;;
5871;SDS011;2962;51.312;7.378;2022-09-20T11:50:40;3.27;;;1.40;;
5871;SDS011;2962;51.312;7.378;2022-09-20T11:56:20;9.53;;;1.40;;
5871;SDS011;2962;51.312;7.378;2022-09-20T11:58:49;3.60;;;2.00;;
5871;SDS011;2962;51.312;7.378;2022-09-20T12:01:28;7.77;;;1.50;;
5871;SDS011;2962;51.312;7.378;2022-09-20T12:04:17;2.30;;;1.27;;
5871;SDS011;2962;51.312;7.378;2022-09-20T12:06:54;5.03;;;1.60;;
5871;SDS011;2962;51.312;7.378;2022-09-20T12:09:29;1.50;;;1.10;;
5871;SDS011;2962;51.312;7.378;2022-09-20T12:11:58;4.43;;;1.23;;
5871;SDS011;2962;51.312;7.378;2022-09-20T12:14:37;3.17;;;0.90;;
5871;SDS011;2962;51.312;7.378;2022-09-20T12:17:02;3.03;;;0.90;;
5871;SDS011;2962;51.312;7.378;2022-09-20T12:24:26;5.67;;;0.73;;
5871;SDS011;2962;51.312;7.378;2022-09-20T12:26:56;5.07;;;1.60;;
5871;SDS011;2962;51.312;7.378;2022-09-20T12:31:50;3.80;;;0.90;;
5871;SDS011;2962;51.312;7.378;2022-09-20T12:36:43;1.20;;;1.00;;
5871;SDS011;2962;51.312;7.378;2022-09-20T12:41:51;1.07;;;0.90;;
5871;SDS011;2962;51.312;7.378;2022-09-20T12:52:37;0.67;;;0.60;;
5871;SDS011;2962;51.312;7.378;2022-09-20T12:58:04;0.87;;;0.70;;
5871;SDS011;2962;51.312;7.378;2022-09-20T13:00:46;1.37;;;0.63;;
5871;SDS011;2962;51.312;7.378;2022-09-20T13:08:31;3.13;;;1.30;;
5871;SDS011;2962;51.312;7.378;2022-09-20T13:11:14;2.17;;;1.10;;
5871;SDS011;2962;51.312;7.378;2022-09-20T13:19:05;1.93;;;1.00;;
5871;SDS011;2962;51.312;7.378;2022-09-20T13:21:38;4.93;;;1.37;;
5871;SDS011;2962;51.312;7.378;2022-09-20T13:24:06;1.47;;;0.63;;
5871;SDS011;2962;51.312;7.378;2022-09-20T13:26:39;4.00;;;1.33;;
5871;SDS011;2962;51.312;7.378;2022-09-20T13:29:08;1.60;;;1.23;;
5871;SDS011;2962;51.312;7.378;2022-09-20T13:31:47;3.53;;;1.07;;
5871;SDS011;2962;51.312;7.378;2022-09-20T13:34:22;3.63;;;1.73;;
5871;SDS011;2962;51.312;7.378;2022-09-20T13:36:50;3.13;;;0.60;;
5871;SDS011;2962;51.312;7.378;2022-09-20T13:39:21;3.93;;;1.47;;
5871;SDS011;2962;51.312;7.378;2022-09-20T13:41:49;2.43;;;1.10;;
5871;SDS011;2962;51.312;7.378;2022-09-20T13:44:15;4.50;;;1.10;;
5871;SDS011;2962;51.312;7.378;2022-09-20T13:46:42;0.63;;;0.63;;
5871;SDS011;2962;51.312;7.378;2022-09-20T13:49:16;3.43;;;1.00;;
5871;SDS011;2962;51.312;7.378;2022-09-20T13:51:45;1.37;;;0.87;;
5871;SDS011;2962;51.312;7.378;2022-09-20T13:54:20;1.03;;;0.90;;
5871;SDS011;2962;51.312;7.378;2022-09-20T13:56:46;6.83;;;1.60;;
5871;SDS011;2962;51.312;7.378;2022-09-20T13:59:12;1.50;;;1.03;;
5871;SDS011;2962;51.312;7.378;2022-09-20T14:01:48;3.73;;;1.07;;
5871;SDS011;2962;51.312;7.378;2022-09-20T14:04:16;2.20;;;1.10;;
5871;SDS011;2962;51.312;7.378;2022-09-20T14:06:45;11.80;;;1.03;;
5871;SDS011;2962;51.312;7.378;2022-09-20T14:09:33;0.93;;;0.90;;
5871;SDS011;2962;51.312;7.378;2022-09-20T14:12:03;0.90;;;0.90;;
5871;SDS011;2962;51.312;7.378;2022-09-20T14:14:30;2.33;;;0.83;;
5871;SDS011;2962;51.312;7.378;2022-09-20T14:16:56;2.53;;;1.60;;
5871;SDS011;2962;51.312;7.378;2022-09-20T14:19:32;1.23;;;0.87;;
5871;SDS011;2962;51.312;7.378;2022-09-20T14:22:04;3.23;;;0.90;;
5871;SDS011;2962;51.312;7.378;2022-09-20T14:24:31;2.63;;;0.87;;
5871;SDS011;2962;51.312;7.378;2022-09-20T14:32:05;3.50;;;0.73;;
5871;SDS011;2962;51.312;7.378;2022-09-20T14:35:04;1.00;;;0.70;;
5871;SDS011;2962;51.312;7.378;2022-09-20T14:37:49;1.27;;;0.80;;
5871;SDS011;2962;51.312;7.378;2022-09-20T14:42:47;1.33;;;1.27;;
5871;SDS011;2962;51.312;7.378;2022-09-20T14:45:28;2.20;;;0.90;;
5871;SDS011;2962;51.312;7.378;2022-09-20T14:55:26;1.37;;;0.50;;
5871;SDS011;2962;51.312;7.378;2022-09-20T14:57:56;2.43;;;2.03;;
5871;SDS011;2962;51.312;7.378;2022-09-20T15:00:24;8.00;;;1.60;;
5871;SDS011;2962;51.312;7.378;2022-09-20T15:02:51;3.13;;;2.00;;
5871;SDS011;2962;51.312;7.378;2022-09-20T15:05:17;3.70;;;1.47;;
5871;SDS011;2962;51.312;7.378;2022-09-20T15:07:48;1.93;;;1.57;;
5871;SDS011;2962;51.312;7.378;2022-09-20T15:10:14;2.77;;;0.70;;
5871;SDS011;2962;51.312;7.378;2022-09-20T15:12:39;0.83;;;0.83;;
5871;SDS011;2962;51.312;7.378;2022-09-20T15:15:06;2.93;;;0.90;;
5871;SDS011;2962;51.312;7.378;2022-09-20T15:17:38;2.43;;;1.07;;
5871;SDS011;2962;51.312;7.378;2022-09-20T15:20:04;6.57;;;1.20;;
5871;SDS011;2962;51.312;7.378;2022-09-20T15:22:30;0.90;;;0.87;;
5871;SDS011;2962;51.312;7.378;2022-09-20T15:24:56;0.80;;;0.80;;
5871;SDS011;2962;51.312;7.378;2022-09-20T15:27:21;2.63;;;1.47;;
5871;SDS011;2962;51.312;7.378;2022-09-20T15:29:47;4.20;;;1.60;;
5871;SDS011;2962;51.312;7.378;2022-09-20T15:32:12;2.97;;;0.90;;
5871;SDS011;2962;51.312;7.378;2022-09-20T15:34:38;5.00;;;1.00;;
5871;SDS011;2962;51.312;7.378;2022-09-20T15:37:03;1.43;;;0.80;;
5871;SDS011;2962;51.312;7.378;2022-09-20T15:39:28;0.90;;;0.90;;
5871;SDS011;2962;51.312;7.378;2022-09-20T15:41:54;4.90;;;2.10;;
5871;SDS011;2962;51.312;7.378;2022-09-20T15:44:19;4.20;;;1.00;;
5871;SDS011;2962;51.312;7.378;2022-09-20T15:46:44;4.07;;;0.80;;
5871;SDS011;2962;51.312;7.378;2022-09-20T15:49:10;2.87;;;1.00;;
5871;SDS011;2962;51.312;7.378;2022-09-20T15:51:36;1.90;;;0.90;;
5871;SDS011;2962;51.312;7.378;2022-09-20T15:54:03;2.10;;;0.90;;
5871;SDS011;2962;51.312;7.378;2022-09-20T15:56:36;2.00;;;0.80;;
5871;SDS011;2962;51.312;7.378;2022-09-20T15:59:05;3.70;;;0.70;;
5871;SDS011;2962;51.312;7.378;2022-09-20T16:01:38;1.63;;;0.87;;
5871;SDS011;2962;51.312;7.378;2022-09-20T16:04:06;3.33;;;0.90;;
5871;SDS011;2962;51.312;7.378;2022-09-20T16:06:43;2.83;;;0.97;;
5871;SDS011;2962;51.312;7.378;2022-09-20T16:09:10;2.23;;;0.93;;
5871;SDS011;2962;51.312;7.378;2022-09-20T16:11:36;4.70;;;1.00;;
5871;SDS011;2962;51.312;7.378;2022-09-20T16:14:02;1.63;;;1.10;;
5871;SDS011;2962;51.312;7.378;2022-09-20T16:16:28;6.50;;;1.07;;
5871;SDS011;2962;51.312;7.378;2022-09-20T16:18:54;9.10;;;1.73;;
5871;SDS011;2962;51.312;7.378;2022-09-20T16:21:40;2.00;;;0.80;;
5871;SDS011;2962;51.312;7.378;2022-09-20T16:24:07;0.97;;;0.63;;
5871;SDS011;2962;51.312;7.378;2022-09-20T16:26:33;2.43;;;1.27;;
5871;SDS011;2962;51.312;7.378;2022-09-20T16:28:59;3.90;;;1.10;;
5871;SDS011;2962;51.312;7.378;2022-09-20T16:33:51;2.83;;;1.40;;
5871;SDS011;2962;51.312;7.378;2022-09-20T16:36:16;0.93;;;0.93;;
5871;SDS011;2962;51.312;7.378;2022-09-20T16:38:42;6.00;;;1.30;;
5871;SDS011;2962;51.312;7.378;2022-09-20T16:41:08;5.13;;;1.27;;
5871;SDS011;2962;51.312;7.378;2022-09-20T16:43:33;1.40;;;1.30;;
5871;SDS011;2962;51.312;7.378;2022-09-20T16:45:59;25.20;;;12.23;;
5871;SDS011;2962;51.312;7.378;2022-09-20T16:48:25;5.13;;;1.13;;
5871;SDS011;2962;51.312;7.378;2022-09-20T16:50:55;1.17;;;0.80;;
5871;SDS011;2962;51.312;7.378;2022-09-20T16:53:21;5.60;;;1.30;;
5871;SDS011;2962;51.312;7.378;2022-09-20T16:55:47;2.77;;;0.70;;
5871;SDS011;2962;51.312;7.378;2022-09-20T16:58:13;1.40;;;1.27;;
5871;SDS011;2962;51.312;7.378;2022-09-20T17:00:38;2.77;;;1.10;;
5871;SDS011;2962;51.312;7.378;2022-09-20T17:03:04;4.03;;;1.40;;
5871;SDS011;2962;51.312;7.378;2022-09-20T17:05:29;8.50;;;1.33;;
5871;SDS011;2962;51.312;7.378;2022-09-20T17:07:54;4.13;;;1.13;;
5871;SDS011;2962;51.312;7.378;2022-09-20T17:10:20;2.97;;;1.67;;
5871;SDS011;2962;51.312;7.378;2022-09-20T17:12:48;3.43;;;1.27;;
5871;SDS011;2962;51.312;7.378;2022-09-20T17:15:16;1.30;;;0.90;;
5871;SDS011;2962;51.312;7.378;2022-09-20T17:17:42;3.80;;;1.40;;
5871;SDS011;2962;51.312;7.378;2022-09-20T17:20:07;4.77;;;0.87;;
5871;SDS011;2962;51.312;7.378;2022-09-20T17:22:33;5.00;;;1.63;;
5871;SDS011;2962;51.312;7.378;2022-09-20T17:24:59;2.77;;;1.40;;
5871;SDS011;2962;51.312;7.378;2022-09-20T17:27:24;2.50;;;1.40;;
5871;SDS011;2962;51.312;7.378;2022-09-20T17:29:49;2.50;;;0.90;;
5871;SDS011;2962;51.312;7.378;2022-09-20T17:32:15;1.13;;;1.10;;
5871;SDS011;2962;51.312;7.378;2022-09-20T17:34:41;3.80;;;1.40;;
5871;SDS011;2962;51.312;7.378;2022-09-20T17:37:06;4.43;;;1.30;;
5871;SDS011;2962;51.312;7.378;2022-09-20T17:39:31;5.40;;;1.60;;
5871;SDS011;2962;51.312;7.378;2022-09-20T17:41:57;2.53;;;0.93;;
5871;SDS011;2962;51.312;7.378;2022-09-20T17:44:22;1.93;;;1.73;;
5871;SDS011;2962;51.312;7.378;2022-09-20T17:46:48;2.03;;;1.30;;
5871;SDS011;2962;51.312;7.378;2022-09-20T17:49:15;3.23;;;1.13;;
5871;SDS011;2962;51.312;7.378;2022-09-20T17:51:43;2.87;;;1.47;;
5871;SDS011;2962;51.312;7.378;2022-09-20T17:54:11;3.87;;;1.57;;
5871;SDS011;2962;51.312;7.378;2022-09-20T17:56:37;5.23;;;1.13;;
5871;SDS011;2962;51.312;7.378;2022-09-20T17:59:05;5.00;;;2.10;;
5871;SDS011;2962;51.312;7.378;2022-09-20T18:01:32;4.10;;;1.40;;
5871;SDS011;2962;51.312;7.378;2022-09-20T18:03:59;6.60;;;1.23;;
5871;SDS011;2962;51.312;7.378;2022-09-20T18:06:27;5.00;;;1.60;;
5871;SDS011;2962;51.312;7.378;2022-09-20T18:08:55;12.53;;;1.43;;
5871;SDS011;2962;51.312;7.378;2022-09-20T18:11:29;2.20;;;1.50;;
5871;SDS011;2962;51.312;7.378;2022-09-20T18:13:59;5.43;;;3.20;;
5871;SDS011;2962;51.312;7.378;2022-09-20T18:16:25;8.23;;;1.63;;
5871;SDS011;2962;51.312;7.378;2022-09-20T18:18:50;5.27;;;1.57;;
5871;SDS011;2962;51.312;7.378;2022-09-20T18:21:20;4.27;;;1.13;;
5871;SDS011;2962;51.312;7.378;2022-09-20T18:23:48;6.70;;;1.10;;
5871;SDS011;2962;51.312;7.378;2022-09-20T18:26:18;2.77;;;0.90;;
5871;SDS011;2962;51.312;7.378;2022-09-20T18:34:11;2.17;;;0.73;;
5871;SDS011;2962;51.312;7.378;2022-09-20T18:36:39;3.70;;;1.10;;
5871;SDS011;2962;51.312;7.378;2022-09-20T18:39:05;4.40;;;1.43;;
5871;SDS011;2962;51.312;7.378;2022-09-20T18:41:31;1.43;;;1.00;;
5871;SDS011;2962;51.312;7.378;2022-09-20T18:43:59;4.63;;;1.20;;
5871;SDS011;2962;51.312;7.378;2022-09-20T18:46:26;1.33;;;1.23;;
5871;SDS011;2962;51.312;7.378;2022-09-20T18:48:54;3.07;;;1.03;;
5871;SDS011;2962;51.312;7.378;2022-09-20T18:51:26;2.20;;;1.07;;
5871;SDS011;2962;51.312;7.378;2022-09-20T18:53:55;3.23;;;1.00;;
5871;SDS011;2962;51.312;7.378;2022-09-20T18:56:25;5.43;;;1.30;;
5871;SDS011;2962;51.312;7.378;2022-09-20T18:58:56;15.50;;;1.20;;
5871;SDS011;2962;51.312;7.378;2022-09-20T19:21:00;8.67;;;1.10;;
5871;SDS011;2962;51.312;7.378;2022-09-20T19:26:35;3.30;;;0.83;;
5871;SDS011;2962;51.312;7.378;2022-09-20T19:29:02;2.57;;;0.90;;
5871;SDS011;2962;51.312;7.378;2022-09-20T19:31:36;1.90;;;1.43;;
5871;SDS011;2962;51.312;7.378;2022-09-20T19:34:03;6.87;;;1.43;;
5871;SDS011;2962;51.312;7.378;2022-09-20T19:39:58;6.37;;;2.20;;
5871;SDS011;2962;51.312;7.378;2022-09-20T19:47:51;2.60;;;1.03;;
5871;SDS011;2962;51.312;7.378;2022-09-20T19:50:44;1.20;;;1.10;;
5871;SDS011;2962;51.312;7.378;2022-09-20T19:53:13;1.23;;;1.13;;
5871;SDS011;2962;51.312;7.378;2022-09-20T19:55:42;3.90;;;1.43;;
5871;SDS011;2962;51.312;7.378;2022-09-20T19:58:11;3.33;;;2.43;;
5871;SDS011;2962;51.312;7.378;2022-09-20T20:00:37;3.80;;;2.90;;
5871;SDS011;2962;51.312;7.378;2022-09-20T20:03:04;9.30;;;2.60;;
5871;SDS011;2962;51.312;7.378;2022-09-20T20:05:29;4.50;;;2.47;;
5871;SDS011;2962;51.312;7.378;2022-09-20T20:11:20;6.17;;;2.03;;
5871;SDS011;2962;51.312;7.378;2022-09-20T20:14:05;3.23;;;1.73;;
5871;SDS011;2962;51.312;7.378;2022-09-20T20:22:10;1.77;;;1.67;;
5871;SDS011;2962;51.312;7.378;2022-09-20T20:24:51;3.17;;;2.83;;
5871;SDS011;2962;51.312;7.378;2022-09-20T20:27:18;4.33;;;2.13;;
5871;SDS011;2962;51.312;7.378;2022-09-20T20:29:44;4.10;;;2.00;;
5871;SDS011;2962;51.312;7.378;2022-09-20T20:32:09;8.00;;;2.33;;
5871;SDS011;2962;51.312;7.378;2022-09-20T20:34:35;1.80;;;1.70;;
5871;SDS011;2962;51.312;7.378;2022-09-20T20:37:01;4.57;;;1.70;;